sensor_id;sensor_type;location;lat;lon;timestamp;P1;durP1;ratioP1;P2;durP2;ratioP2
62037;SDS011;47991;42.974;12.082;2023-07-22T00:00:38;14.60;;;7.40;;
62037;SDS011;47991;42.974;12.082;2023-07-22T00:03:25;17.30;;;7.30;;
62037;SDS011;47991;42.974;12.082;2023-07-22T00:06:05;18.30;;;7.70;;
62037;SDS011;47991;42.974;12.082;2023-07-22T00:08:35;14.20;;;6.30;;
62037;SDS011;47991;42.974;12.082;2023-07-22T00:11:03;15.80;;;6.30;;
62037;SDS011;47991;42.974;12.082;2023-07-22T00:13:31;14.80;;;6.70;;
62037;SDS011;47991;42.974;12.082;2023-07-22T00:15:58;14.60;;;7.00;;
62037;SDS011;47991;42.974;12.082;2023-07-22T00:18:28;15.70;;;7.00;;
62037;SDS011;47991;42.974;12.082;2023-07-22T00:20:57;15.30;;;6.50;;
62037;SDS011;47991;42.974;12.082;2023-07-22T00:23:24;15.50;;;7.20;;
62037;SDS011;47991;42.974;12.082;2023-07-22T00:25:51;15.30;;;6.80;;
62037;SDS011;47991;42.974;12.082;2023-07-22T00:28:18;14.80;;;7.00;;
62037;SDS011;47991;42.974;12.082;2023-07-22T00:30:45;14.90;;;7.40;;
62037;SDS011;47991;42.974;12.082;2023-07-22T00:33:11;14.10;;;7.10;;
62037;SDS011;47991;42.974;12.082;2023-07-22T00:35:40;12.60;;;6.70;;
62037;SDS011;47991;42.974;12.082;2023-07-22T00:38:07;14.20;;;7.10;;
62037;SDS011;47991;42.974;12.082;2023-07-22T00:40:34;16.00;;;7.30;;
62037;SDS011;47991;42.974;12.082;2023-07-22T00:43:01;16.60;;;7.70;;
62037;SDS011;47991;42.974;12.082;2023-07-22T00:45:28;15.00;;;7.30;;
62037;SDS011;47991;42.974;12.082;2023-07-22T00:47:55;14.90;;;7.40;;
62037;SDS011;47991;42.974;12.082;2023-07-22T00:50:22;17.80;;;7.50;;
62037;SDS011;47991;42.974;12.082;2023-07-22T00:52:51;15.20;;;7.10;;
62037;SDS011;47991;42.974;12.082;2023-07-22T00:55:18;15.30;;;6.60;;
62037;SDS011;47991;42.974;12.082;2023-07-22T00:57:45;16.80;;;7.10;;
62037;SDS011;47991;42.974;12.082;2023-07-22T01:00:12;23.70;;;8.20;;
62037;SDS011;47991;42.974;12.082;2023-07-22T01:02:42;57.70;;;9.80;;
62037;SDS011;47991;42.974;12.082;2023-07-22T01:05:10;16.00;;;7.50;;
62037;SDS011;47991;42.974;12.082;2023-07-22T01:07:38;16.70;;;7.80;;
62037;SDS011;47991;42.974;12.082;2023-07-22T01:10:06;19.20;;;7.60;;
62037;SDS011;47991;42.974;12.082;2023-07-22T01:12:35;18.50;;;7.90;;
62037;SDS011;47991;42.974;12.082;2023-07-22T01:15:02;14.50;;;7.60;;
62037;SDS011;47991;42.974;12.082;2023-07-22T01:17:34;18.10;;;8.10;;
62037;SDS011;47991;42.974;12.082;2023-07-22T01:20:06;19.00;;;8.30;;
62037;SDS011;47991;42.974;12.082;2023-07-22T01:22:35;17.30;;;7.10;;
62037;SDS011;47991;42.974;12.082;2023-07-22T01:25:03;18.40;;;8.30;;
62037;SDS011;47991;42.974;12.082;2023-07-22T01:27:32;16.90;;;8.60;;
62037;SDS011;47991;42.974;12.082;2023-07-22T01:29:59;17.40;;;8.40;;
62037;SDS011;47991;42.974;12.082;2023-07-22T01:32:28;18.30;;;8.30;;
62037;SDS011;47991;42.974;12.082;2023-07-22T01:34:54;20.10;;;8.50;;
62037;SDS011;47991;42.974;12.082;2023-07-22T01:37:21;18.70;;;7.90;;
62037;SDS011;47991;42.974;12.082;2023-07-22T01:39:48;23.50;;;8.60;;
62037;SDS011;47991;42.974;12.082;2023-07-22T01:42:17;16.50;;;8.20;;
62037;SDS011;47991;42.974;12.082;2023-07-22T01:44:44;19.20;;;8.70;;
62037;SDS011;47991;42.974;12.082;2023-07-22T01:47:11;18.10;;;8.20;;
62037;SDS011;47991;42.974;12.082;2023-07-22T01:49:38;28.40;;;8.60;;
62037;SDS011;47991;42.974;12.082;2023-07-22T01:52:05;18.30;;;7.70;;
62037;SDS011;47991;42.974;12.082;2023-07-22T01:54:32;14.70;;;8.00;;
62037;SDS011;47991;42.974;12.082;2023-07-22T01:56:59;19.50;;;8.50;;
62037;SDS011;47991;42.974;12.082;2023-07-22T01:59:26;18.10;;;8.20;;
62037;SDS011;47991;42.974;12.082;2023-07-22T02:01:52;17.60;;;8.40;;
62037;SDS011;47991;42.974;12.082;2023-07-22T02:04:19;17.70;;;8.80;;
62037;SDS011;47991;42.974;12.082;2023-07-22T02:06:46;21.40;;;8.20;;
62037;SDS011;47991;42.974;12.082;2023-07-22T02:09:13;19.20;;;9.00;;
62037;SDS011;47991;42.974;12.082;2023-07-22T02:11:40;19.80;;;8.80;;
62037;SDS011;47991;42.974;12.082;2023-07-22T02:14:07;21.30;;;8.50;;
62037;SDS011;47991;42.974;12.082;2023-07-22T02:16:34;21.80;;;8.10;;
62037;SDS011;47991;42.974;12.082;2023-07-22T02:19:03;17.60;;;8.70;;
62037;SDS011;47991;42.974;12.082;2023-07-22T02:21:30;19.90;;;8.80;;
62037;SDS011;47991;42.974;12.082;2023-07-22T02:23:57;20.30;;;8.70;;
62037;SDS011;47991;42.974;12.082;2023-07-22T02:26:24;18.10;;;8.60;;
62037;SDS011;47991;42.974;12.082;2023-07-22T02:28:51;18.90;;;8.60;;
62037;SDS011;47991;42.974;12.082;2023-07-22T02:31:18;19.10;;;9.20;;
62037;SDS011;47991;42.974;12.082;2023-07-22T02:33:45;16.60;;;9.00;;
62037;SDS011;47991;42.974;12.082;2023-07-22T02:36:13;17.60;;;8.50;;
62037;SDS011;47991;42.974;12.082;2023-07-22T02:38:40;21.50;;;9.40;;
62037;SDS011;47991;42.974;12.082;2023-07-22T02:41:07;22.20;;;9.30;;
62037;SDS011;47991;42.974;12.082;2023-07-22T02:43:34;17.60;;;8.50;;
62037;SDS011;47991;42.974;12.082;2023-07-22T02:46:02;21.60;;;9.90;;
62037;SDS011;47991;42.974;12.082;2023-07-22T02:48:30;18.10;;;8.80;;
62037;SDS011;47991;42.974;12.082;2023-07-22T02:51:04;21.40;;;9.50;;
62037;SDS011;47991;42.974;12.082;2023-07-22T02:53:33;20.70;;;9.20;;
62037;SDS011;47991;42.974;12.082;2023-07-22T02:56:03;25.50;;;8.90;;
62037;SDS011;47991;42.974;12.082;2023-07-22T02:58:33;17.10;;;8.80;;
62037;SDS011;47991;42.974;12.082;2023-07-22T03:01:00;17.50;;;8.90;;
62037;SDS011;47991;42.974;12.082;2023-07-22T03:03:27;19.20;;;9.70;;
62037;SDS011;47991;42.974;12.082;2023-07-22T03:05:54;19.20;;;9.50;;
62037;SDS011;47991;42.974;12.082;2023-07-22T03:08:21;17.50;;;9.10;;
62037;SDS011;47991;42.974;12.082;2023-07-22T03:10:47;16.90;;;8.30;;
62037;SDS011;47991;42.974;12.082;2023-07-22T03:13:15;17.80;;;8.30;;
62037;SDS011;47991;42.974;12.082;2023-07-22T03:15:43;17.50;;;8.90;;
62037;SDS011;47991;42.974;12.082;2023-07-22T03:18:11;17.10;;;9.00;;
62037;SDS011;47991;42.974;12.082;2023-07-22T03:20:38;16.80;;;8.30;;
62037;SDS011;47991;42.974;12.082;2023-07-22T03:23:05;20.70;;;8.50;;
62037;SDS011;47991;42.974;12.082;2023-07-22T03:25:33;18.10;;;8.10;;
62037;SDS011;47991;42.974;12.082;2023-07-22T03:28:02;20.00;;;8.60;;
62037;SDS011;47991;42.974;12.082;2023-07-22T03:30:31;18.20;;;8.00;;
62037;SDS011;47991;42.974;12.082;2023-07-22T03:32:59;16.50;;;7.70;;
62037;SDS011;47991;42.974;12.082;2023-07-22T03:35:27;15.20;;;8.30;;
62037;SDS011;47991;42.974;12.082;2023-07-22T03:37:55;16.50;;;8.30;;
62037;SDS011;47991;42.974;12.082;2023-07-22T03:40:22;17.60;;;8.30;;
62037;SDS011;47991;42.974;12.082;2023-07-22T03:42:57;17.10;;;8.30;;
62037;SDS011;47991;42.974;12.082;2023-07-22T03:45:24;22.10;;;8.80;;
62037;SDS011;47991;42.974;12.082;2023-07-22T03:47:52;17.50;;;9.00;;
62037;SDS011;47991;42.974;12.082;2023-07-22T03:50:22;17.90;;;9.20;;
62037;SDS011;47991;42.974;12.082;2023-07-22T03:52:49;17.90;;;8.90;;
62037;SDS011;47991;42.974;12.082;2023-07-22T03:55:16;20.60;;;8.80;;
62037;SDS011;47991;42.974;12.082;2023-07-22T03:57:43;17.50;;;8.80;;
62037;SDS011;47991;42.974;12.082;2023-07-22T04:00:10;17.00;;;9.80;;
62037;SDS011;47991;42.974;12.082;2023-07-22T04:02:37;18.90;;;9.50;;
62037;SDS011;47991;42.974;12.082;2023-07-22T04:05:06;16.10;;;8.30;;
62037;SDS011;47991;42.974;12.082;2023-07-22T04:07:35;49.40;;;11.40;;
62037;SDS011;47991;42.974;12.082;2023-07-22T04:10:03;33.00;;;10.10;;
62037;SDS011;47991;42.974;12.082;2023-07-22T04:12:31;25.50;;;9.20;;
62037;SDS011;47991;42.974;12.082;2023-07-22T04:14:57;24.10;;;8.70;;
62037;SDS011;47991;42.974;12.082;2023-07-22T04:17:25;20.90;;;8.60;;
62037;SDS011;47991;42.974;12.082;2023-07-22T04:19:52;19.00;;;9.00;;
62037;SDS011;47991;42.974;12.082;2023-07-22T04:22:20;22.50;;;9.00;;
62037;SDS011;47991;42.974;12.082;2023-07-22T04:24:47;19.80;;;8.40;;
62037;SDS011;47991;42.974;12.082;2023-07-22T04:29:44;15.70;;;8.30;;
62037;SDS011;47991;42.974;12.082;2023-07-22T04:32:11;15.70;;;8.80;;
62037;SDS011;47991;42.974;12.082;2023-07-22T04:34:38;17.60;;;8.60;;
62037;SDS011;47991;42.974;12.082;2023-07-22T04:37:06;20.10;;;9.40;;
62037;SDS011;47991;42.974;12.082;2023-07-22T04:39:33;17.00;;;8.60;;
62037;SDS011;47991;42.974;12.082;2023-07-22T04:42:00;19.30;;;8.40;;
62037;SDS011;47991;42.974;12.082;2023-07-22T04:44:28;17.60;;;7.90;;
62037;SDS011;47991;42.974;12.082;2023-07-22T04:46:54;18.50;;;8.60;;
62037;SDS011;47991;42.974;12.082;2023-07-22T04:49:21;19.80;;;8.40;;
62037;SDS011;47991;42.974;12.082;2023-07-22T04:51:49;17.70;;;8.10;;
62037;SDS011;47991;42.974;12.082;2023-07-22T04:54:16;17.70;;;8.20;;
62037;SDS011;47991;42.974;12.082;2023-07-22T04:56:44;16.90;;;7.80;;
62037;SDS011;47991;42.974;12.082;2023-07-22T04:59:11;14.00;;;7.80;;
62037;SDS011;47991;42.974;12.082;2023-07-22T05:01:41;12.70;;;7.10;;
62037;SDS011;47991;42.974;12.082;2023-07-22T05:04:10;12.90;;;7.10;;
62037;SDS011;47991;42.974;12.082;2023-07-22T05:06:37;20.30;;;7.70;;
62037;SDS011;47991;42.974;12.082;2023-07-22T05:09:03;12.90;;;7.60;;
62037;SDS011;47991;42.974;12.082;2023-07-22T05:11:30;14.50;;;7.30;;
62037;SDS011;47991;42.974;12.082;2023-07-22T05:13:57;16.50;;;7.50;;
62037;SDS011;47991;42.974;12.082;2023-07-22T05:16:24;14.80;;;7.20;;
62037;SDS011;47991;42.974;12.082;2023-07-22T05:18:51;14.90;;;7.20;;
62037;SDS011;47991;42.974;12.082;2023-07-22T05:21:18;18.00;;;7.40;;
62037;SDS011;47991;42.974;12.082;2023-07-22T05:23:45;17.20;;;7.60;;
62037;SDS011;47991;42.974;12.082;2023-07-22T05:26:12;16.20;;;7.00;;
62037;SDS011;47991;42.974;12.082;2023-07-22T05:28:39;12.60;;;7.00;;
62037;SDS011;47991;42.974;12.082;2023-07-22T05:31:06;14.50;;;6.70;;
62037;SDS011;47991;42.974;12.082;2023-07-22T05:33:33;15.90;;;6.70;;
62037;SDS011;47991;42.974;12.082;2023-07-22T05:36:00;16.70;;;6.60;;
62037;SDS011;47991;42.974;12.082;2023-07-22T05:38:28;13.10;;;6.10;;
62037;SDS011;47991;42.974;12.082;2023-07-22T05:40:55;18.90;;;6.10;;
62037;SDS011;47991;42.974;12.082;2023-07-22T05:43:22;13.30;;;5.90;;
62037;SDS011;47991;42.974;12.082;2023-07-22T05:45:49;14.90;;;6.00;;
62037;SDS011;47991;42.974;12.082;2023-07-22T05:48:16;17.80;;;6.20;;
62037;SDS011;47991;42.974;12.082;2023-07-22T05:50:43;14.10;;;6.50;;
62037;SDS011;47991;42.974;12.082;2023-07-22T05:53:10;16.00;;;6.70;;
62037;SDS011;47991;42.974;12.082;2023-07-22T05:55:37;19.00;;;6.60;;
62037;SDS011;47991;42.974;12.082;2023-07-22T05:58:04;20.40;;;7.70;;
62037;SDS011;47991;42.974;12.082;2023-07-22T06:00:34;17.20;;;7.20;;
62037;SDS011;47991;42.974;12.082;2023-07-22T06:03:01;18.00;;;6.40;;
62037;SDS011;47991;42.974;12.082;2023-07-22T06:05:28;15.80;;;6.80;;
62037;SDS011;47991;42.974;12.082;2023-07-22T06:07:55;15.30;;;6.40;;
62037;SDS011;47991;42.974;12.082;2023-07-22T06:10:23;15.80;;;6.80;;
62037;SDS011;47991;42.974;12.082;2023-07-22T06:12:51;18.30;;;6.80;;
62037;SDS011;47991;42.974;12.082;2023-07-22T06:15:17;15.40;;;6.50;;
62037;SDS011;47991;42.974;12.082;2023-07-22T06:17:44;18.20;;;6.60;;
62037;SDS011;47991;42.974;12.082;2023-07-22T06:20:11;16.30;;;6.80;;
62037;SDS011;47991;42.974;12.082;2023-07-22T06:22:38;15.00;;;6.90;;
62037;SDS011;47991;42.974;12.082;2023-07-22T06:25:05;20.90;;;7.50;;
62037;SDS011;47991;42.974;12.082;2023-07-22T06:27:33;15.50;;;6.30;;
62037;SDS011;47991;42.974;12.082;2023-07-22T06:30:01;18.80;;;7.00;;
62037;SDS011;47991;42.974;12.082;2023-07-22T06:32:28;15.20;;;6.80;;
62037;SDS011;47991;42.974;12.082;2023-07-22T06:34:56;16.60;;;6.80;;
62037;SDS011;47991;42.974;12.082;2023-07-22T06:37:24;14.90;;;6.60;;
62037;SDS011;47991;42.974;12.082;2023-07-22T06:39:52;16.50;;;7.30;;
62037;SDS011;47991;42.974;12.082;2023-07-22T06:42:19;21.30;;;7.40;;
62037;SDS011;47991;42.974;12.082;2023-07-22T06:44:47;17.60;;;6.20;;
62037;SDS011;47991;42.974;12.082;2023-07-22T06:47:14;20.40;;;6.80;;
62037;SDS011;47991;42.974;12.082;2023-07-22T06:49:41;19.10;;;7.50;;
62037;SDS011;47991;42.974;12.082;2023-07-22T06:52:08;15.90;;;6.10;;
62037;SDS011;47991;42.974;12.082;2023-07-22T06:54:35;15.60;;;7.00;;
62037;SDS011;47991;42.974;12.082;2023-07-22T06:57:02;22.70;;;7.30;;
62037;SDS011;47991;42.974;12.082;2023-07-22T06:59:29;20.00;;;7.10;;
62037;SDS011;47991;42.974;12.082;2023-07-22T07:01:56;13.10;;;6.40;;
62037;SDS011;47991;42.974;12.082;2023-07-22T07:04:23;15.70;;;6.10;;
62037;SDS011;47991;42.974;12.082;2023-07-22T07:06:50;15.50;;;6.60;;
62037;SDS011;47991;42.974;12.082;2023-07-22T07:09:16;16.40;;;6.60;;
62037;SDS011;47991;42.974;12.082;2023-07-22T07:11:44;16.70;;;6.20;;
62037;SDS011;47991;42.974;12.082;2023-07-22T07:14:11;16.30;;;6.40;;
62037;SDS011;47991;42.974;12.082;2023-07-22T07:16:39;16.10;;;7.40;;
62037;SDS011;47991;42.974;12.082;2023-07-22T07:19:06;18.90;;;6.60;;
62037;SDS011;47991;42.974;12.082;2023-07-22T07:21:32;15.30;;;7.50;;
62037;SDS011;47991;42.974;12.082;2023-07-22T07:23:59;16.20;;;6.60;;
62037;SDS011;47991;42.974;12.082;2023-07-22T07:26:26;15.50;;;6.80;;
62037;SDS011;47991;42.974;12.082;2023-07-22T07:28:54;21.60;;;7.30;;
62037;SDS011;47991;42.974;12.082;2023-07-22T07:31:21;17.50;;;6.70;;
62037;SDS011;47991;42.974;12.082;2023-07-22T07:33:48;16.00;;;6.50;;
62037;SDS011;47991;42.974;12.082;2023-07-22T07:36:15;17.30;;;6.50;;
62037;SDS011;47991;42.974;12.082;2023-07-22T07:38:42;15.60;;;6.50;;
62037;SDS011;47991;42.974;12.082;2023-07-22T07:41:09;12.10;;;6.30;;
62037;SDS011;47991;42.974;12.082;2023-07-22T07:43:41;19.80;;;7.40;;
62037;SDS011;47991;42.974;12.082;2023-07-22T07:46:20;14.60;;;6.70;;
62037;SDS011;47991;42.974;12.082;2023-07-22T07:48:50;18.10;;;7.00;;
62037;SDS011;47991;42.974;12.082;2023-07-22T07:51:18;18.60;;;6.50;;
62037;SDS011;47991;42.974;12.082;2023-07-22T07:53:47;14.90;;;6.40;;
62037;SDS011;47991;42.974;12.082;2023-07-22T07:56:16;19.50;;;7.50;;
62037;SDS011;47991;42.974;12.082;2023-07-22T07:58:44;14.50;;;5.80;;
62037;SDS011;47991;42.974;12.082;2023-07-22T08:01:12;17.00;;;6.60;;
62037;SDS011;47991;42.974;12.082;2023-07-22T08:03:40;23.60;;;6.40;;
62037;SDS011;47991;42.974;12.082;2023-07-22T08:06:08;15.60;;;6.50;;
62037;SDS011;47991;42.974;12.082;2023-07-22T08:08:36;17.70;;;6.40;;
62037;SDS011;47991;42.974;12.082;2023-07-22T08:11:05;14.10;;;6.00;;
62037;SDS011;47991;42.974;12.082;2023-07-22T08:13:36;13.20;;;6.50;;
62037;SDS011;47991;42.974;12.082;2023-07-22T08:16:04;13.10;;;6.30;;
62037;SDS011;47991;42.974;12.082;2023-07-22T08:18:33;15.50;;;6.30;;
62037;SDS011;47991;42.974;12.082;2023-07-22T08:21:04;19.00;;;6.90;;
62037;SDS011;47991;42.974;12.082;2023-07-22T08:23:35;18.60;;;6.40;;
62037;SDS011;47991;42.974;12.082;2023-07-22T08:26:03;10.90;;;5.60;;
62037;SDS011;47991;42.974;12.082;2023-07-22T08:28:32;15.50;;;6.40;;
62037;SDS011;47991;42.974;12.082;2023-07-22T08:30:59;12.60;;;6.10;;
62037;SDS011;47991;42.974;12.082;2023-07-22T08:33:27;12.40;;;5.80;;
62037;SDS011;47991;42.974;12.082;2023-07-22T08:35:54;14.70;;;6.10;;
62037;SDS011;47991;42.974;12.082;2023-07-22T08:38:22;14.10;;;6.00;;
62037;SDS011;47991;42.974;12.082;2023-07-22T08:40:49;12.60;;;6.10;;
62037;SDS011;47991;42.974;12.082;2023-07-22T08:43:20;15.10;;;5.70;;
62037;SDS011;47991;42.974;12.082;2023-07-22T08:45:49;13.70;;;6.10;;
62037;SDS011;47991;42.974;12.082;2023-07-22T08:48:18;15.10;;;6.00;;
62037;SDS011;47991;42.974;12.082;2023-07-22T08:50:49;19.70;;;6.30;;
62037;SDS011;47991;42.974;12.082;2023-07-22T08:53:29;13.00;;;5.70;;
62037;SDS011;47991;42.974;12.082;2023-07-22T08:55:56;15.50;;;6.00;;
62037;SDS011;47991;42.974;12.082;2023-07-22T08:58:23;13.40;;;5.70;;
62037;SDS011;47991;42.974;12.082;2023-07-22T09:00:52;13.10;;;5.80;;
62037;SDS011;47991;42.974;12.082;2023-07-22T09:03:20;11.40;;;5.90;;
62037;SDS011;47991;42.974;12.082;2023-07-22T09:05:47;15.90;;;6.10;;
62037;SDS011;47991;42.974;12.082;2023-07-22T09:08:15;15.20;;;5.80;;
62037;SDS011;47991;42.974;12.082;2023-07-22T09:10:44;13.70;;;6.00;;
62037;SDS011;47991;42.974;12.082;2023-07-22T09:13:14;14.40;;;5.60;;
62037;SDS011;47991;42.974;12.082;2023-07-22T09:15:42;49.60;;;8.70;;
62037;SDS011;47991;42.974;12.082;2023-07-22T09:18:09;15.50;;;5.70;;
62037;SDS011;47991;42.974;12.082;2023-07-22T09:20:37;11.90;;;5.60;;
62037;SDS011;47991;42.974;12.082;2023-07-22T09:23:04;11.40;;;5.70;;
62037;SDS011;47991;42.974;12.082;2023-07-22T09:25:32;12.50;;;5.20;;
62037;SDS011;47991;42.974;12.082;2023-07-22T09:28:00;13.40;;;4.80;;
62037;SDS011;47991;42.974;12.082;2023-07-22T09:30:30;10.10;;;5.10;;
62037;SDS011;47991;42.974;12.082;2023-07-22T09:33:00;9.60;;;4.90;;
62037;SDS011;47991;42.974;12.082;2023-07-22T09:35:50;10.80;;;4.80;;
62037;SDS011;47991;42.974;12.082;2023-07-22T09:38:23;11.00;;;5.30;;
62037;SDS011;47991;42.974;12.082;2023-07-22T09:40:51;13.50;;;5.40;;
62037;SDS011;47991;42.974;12.082;2023-07-22T09:43:19;29.20;;;7.10;;
62037;SDS011;47991;42.974;12.082;2023-07-22T09:45:49;21.50;;;5.30;;
62037;SDS011;47991;42.974;12.082;2023-07-22T09:48:16;9.00;;;4.70;;
62037;SDS011;47991;42.974;12.082;2023-07-22T09:50:43;13.20;;;5.10;;
62037;SDS011;47991;42.974;12.082;2023-07-22T09:53:10;9.20;;;4.50;;
62037;SDS011;47991;42.974;12.082;2023-07-22T09:55:42;10.60;;;5.00;;
62037;SDS011;47991;42.974;12.082;2023-07-22T09:58:10;12.50;;;5.20;;
62037;SDS011;47991;42.974;12.082;2023-07-22T10:00:42;11.30;;;4.80;;
62037;SDS011;47991;42.974;12.082;2023-07-22T10:03:13;10.90;;;4.80;;
62037;SDS011;47991;42.974;12.082;2023-07-22T10:05:42;22.10;;;5.20;;
62037;SDS011;47991;42.974;12.082;2023-07-22T10:08:14;12.70;;;5.20;;
62037;SDS011;47991;42.974;12.082;2023-07-22T10:10:45;15.00;;;4.90;;
62037;SDS011;47991;42.974;12.082;2023-07-22T10:13:12;9.70;;;4.70;;
62037;SDS011;47991;42.974;12.082;2023-07-22T10:15:40;11.20;;;4.70;;
62037;SDS011;47991;42.974;12.082;2023-07-22T10:18:08;10.50;;;5.10;;
62037;SDS011;47991;42.974;12.082;2023-07-22T10:20:37;11.50;;;5.10;;
62037;SDS011;47991;42.974;12.082;2023-07-22T10:23:05;10.00;;;4.70;;
62037;SDS011;47991;42.974;12.082;2023-07-22T10:25:38;9.90;;;4.70;;
62037;SDS011;47991;42.974;12.082;2023-07-22T10:28:06;10.40;;;4.80;;
62037;SDS011;47991;42.974;12.082;2023-07-22T10:30:34;8.70;;;4.80;;
62037;SDS011;47991;42.974;12.082;2023-07-22T10:33:01;7.30;;;4.30;;
62037;SDS011;47991;42.974;12.082;2023-07-22T10:38:08;12.10;;;4.90;;
62037;SDS011;47991;42.974;12.082;2023-07-22T10:46:05;9.60;;;5.00;;
62037;SDS011;47991;42.974;12.082;2023-07-22T10:48:41;13.30;;;5.30;;
62037;SDS011;47991;42.974;12.082;2023-07-22T10:51:12;9.60;;;5.00;;
62037;SDS011;47991;42.974;12.082;2023-07-22T10:53:45;9.40;;;4.90;;
62037;SDS011;47991;42.974;12.082;2023-07-22T10:56:20;13.90;;;5.50;;
62037;SDS011;47991;42.974;12.082;2023-07-22T11:06:32;15.10;;;4.80;;
62037;SDS011;47991;42.974;12.082;2023-07-22T11:09:00;10.20;;;4.90;;
62037;SDS011;47991;42.974;12.082;2023-07-22T11:11:40;12.30;;;5.10;;
62037;SDS011;47991;42.974;12.082;2023-07-22T11:14:14;9.40;;;4.60;;
62037;SDS011;47991;42.974;12.082;2023-07-22T11:16:44;15.90;;;5.60;;
62037;SDS011;47991;42.974;12.082;2023-07-22T11:19:13;12.40;;;5.10;;
62037;SDS011;47991;42.974;12.082;2023-07-22T11:21:44;10.20;;;4.70;;
62037;SDS011;47991;42.974;12.082;2023-07-22T11:24:12;9.50;;;5.00;;
62037;SDS011;47991;42.974;12.082;2023-07-22T11:26:40;9.00;;;4.70;;
62037;SDS011;47991;42.974;12.082;2023-07-22T11:29:08;9.00;;;5.00;;
62037;SDS011;47991;42.974;12.082;2023-07-22T11:31:36;10.70;;;5.20;;
62037;SDS011;47991;42.974;12.082;2023-07-22T11:34:09;12.00;;;5.50;;
62037;SDS011;47991;42.974;12.082;2023-07-22T11:36:36;9.70;;;5.40;;
62037;SDS011;47991;42.974;12.082;2023-07-22T11:39:03;10.30;;;4.60;;
62037;SDS011;47991;42.974;12.082;2023-07-22T11:41:32;11.30;;;4.80;;
62037;SDS011;47991;42.974;12.082;2023-07-22T11:44:00;9.10;;;5.40;;
62037;SDS011;47991;42.974;12.082;2023-07-22T11:46:28;10.10;;;5.10;;
62037;SDS011;47991;42.974;12.082;2023-07-22T11:48:56;10.50;;;5.20;;
62037;SDS011;47991;42.974;12.082;2023-07-22T11:51:23;14.90;;;5.50;;
62037;SDS011;47991;42.974;12.082;2023-07-22T11:53:51;13.50;;;5.20;;
62037;SDS011;47991;42.974;12.082;2023-07-22T11:56:20;11.90;;;5.60;;
62037;SDS011;47991;42.974;12.082;2023-07-22T11:58:49;12.70;;;5.60;;
62037;SDS011;47991;42.974;12.082;2023-07-22T12:01:17;13.40;;;5.20;;
62037;SDS011;47991;42.974;12.082;2023-07-22T12:03:45;10.30;;;5.30;;
62037;SDS011;47991;42.974;12.082;2023-07-22T12:06:12;11.60;;;4.90;;
62037;SDS011;47991;42.974;12.082;2023-07-22T12:08:46;13.10;;;5.10;;
62037;SDS011;47991;42.974;12.082;2023-07-22T12:11:15;8.30;;;4.60;;
62037;SDS011;47991;42.974;12.082;2023-07-22T12:13:46;10.70;;;5.00;;
62037;SDS011;47991;42.974;12.082;2023-07-22T12:16:22;15.00;;;5.50;;
62037;SDS011;47991;42.974;12.082;2023-07-22T12:18:54;17.30;;;5.90;;
62037;SDS011;47991;42.974;12.082;2023-07-22T12:21:22;10.20;;;4.90;;
62037;SDS011;47991;42.974;12.082;2023-07-22T12:23:49;9.70;;;4.90;;
62037;SDS011;47991;42.974;12.082;2023-07-22T12:26:16;9.30;;;4.70;;
62037;SDS011;47991;42.974;12.082;2023-07-22T12:28:43;8.60;;;4.70;;
62037;SDS011;47991;42.974;12.082;2023-07-22T12:31:10;11.70;;;5.10;;
62037;SDS011;47991;42.974;12.082;2023-07-22T12:33:36;8.70;;;4.90;;
62037;SDS011;47991;42.974;12.082;2023-07-22T12:36:03;11.50;;;5.40;;
62037;SDS011;47991;42.974;12.082;2023-07-22T12:38:31;11.20;;;5.60;;
62037;SDS011;47991;42.974;12.082;2023-07-22T12:40:59;10.80;;;5.40;;
62037;SDS011;47991;42.974;12.082;2023-07-22T12:43:27;8.90;;;4.80;;
62037;SDS011;47991;42.974;12.082;2023-07-22T12:45:54;10.10;;;5.00;;
62037;SDS011;47991;42.974;12.082;2023-07-22T12:48:21;11.60;;;4.80;;
62037;SDS011;47991;42.974;12.082;2023-07-22T12:50:50;17.00;;;5.60;;
62037;SDS011;47991;42.974;12.082;2023-07-22T12:53:18;11.40;;;5.20;;
62037;SDS011;47991;42.974;12.082;2023-07-22T12:55:45;8.70;;;4.70;;
62037;SDS011;47991;42.974;12.082;2023-07-22T12:58:11;9.10;;;4.30;;
62037;SDS011;47991;42.974;12.082;2023-07-22T13:00:38;10.00;;;5.10;;
62037;SDS011;47991;42.974;12.082;2023-07-22T13:03:05;10.20;;;4.90;;
62037;SDS011;47991;42.974;12.082;2023-07-22T13:05:32;13.80;;;5.10;;
62037;SDS011;47991;42.974;12.082;2023-07-22T13:07:58;31.40;;;6.40;;
62037;SDS011;47991;42.974;12.082;2023-07-22T13:10:32;8.90;;;4.90;;
62037;SDS011;47991;42.974;12.082;2023-07-22T13:13:01;9.10;;;4.60;;
62037;SDS011;47991;42.974;12.082;2023-07-22T13:15:29;8.70;;;4.80;;
62037;SDS011;47991;42.974;12.082;2023-07-22T13:17:56;12.50;;;5.00;;
62037;SDS011;47991;42.974;12.082;2023-07-22T13:20:22;9.90;;;5.10;;
62037;SDS011;47991;42.974;12.082;2023-07-22T13:22:49;9.50;;;5.00;;
62037;SDS011;47991;42.974;12.082;2023-07-22T13:25:16;10.00;;;5.00;;
62037;SDS011;47991;42.974;12.082;2023-07-22T13:27:43;9.30;;;5.30;;
62037;SDS011;47991;42.974;12.082;2023-07-22T13:30:10;9.70;;;5.40;;
62037;SDS011;47991;42.974;12.082;2023-07-22T13:32:37;8.80;;;4.90;;
62037;SDS011;47991;42.974;12.082;2023-07-22T13:35:04;10.80;;;5.30;;
62037;SDS011;47991;42.974;12.082;2023-07-22T13:37:32;9.10;;;4.80;;
62037;SDS011;47991;42.974;12.082;2023-07-22T13:39:58;10.50;;;5.20;;
62037;SDS011;47991;42.974;12.082;2023-07-22T13:42:25;10.30;;;5.30;;
62037;SDS011;47991;42.974;12.082;2023-07-22T13:44:52;10.90;;;5.10;;
62037;SDS011;47991;42.974;12.082;2023-07-22T13:47:19;10.50;;;5.30;;
62037;SDS011;47991;42.974;12.082;2023-07-22T13:49:46;10.30;;;5.80;;
62037;SDS011;47991;42.974;12.082;2023-07-22T13:52:13;9.90;;;5.30;;
62037;SDS011;47991;42.974;12.082;2023-07-22T13:54:40;10.80;;;5.10;;
62037;SDS011;47991;42.974;12.082;2023-07-22T13:57:07;12.00;;;5.20;;
62037;SDS011;47991;42.974;12.082;2023-07-22T13:59:34;10.90;;;5.40;;
62037;SDS011;47991;42.974;12.082;2023-07-22T14:02:01;9.80;;;5.40;;
62037;SDS011;47991;42.974;12.082;2023-07-22T14:04:28;13.70;;;5.40;;
62037;SDS011;47991;42.974;12.082;2023-07-22T14:06:54;10.60;;;5.60;;
62037;SDS011;47991;42.974;12.082;2023-07-22T14:09:21;14.60;;;5.90;;
62037;SDS011;47991;42.974;12.082;2023-07-22T14:11:48;12.60;;;5.70;;
62037;SDS011;47991;42.974;12.082;2023-07-22T14:14:15;10.70;;;5.90;;
62037;SDS011;47991;42.974;12.082;2023-07-22T14:16:42;13.00;;;5.70;;
62037;SDS011;47991;42.974;12.082;2023-07-22T14:19:09;13.40;;;6.30;;
62037;SDS011;47991;42.974;12.082;2023-07-22T14:21:37;17.30;;;6.30;;
62037;SDS011;47991;42.974;12.082;2023-07-22T14:24:04;14.80;;;6.00;;
62037;SDS011;47991;42.974;12.082;2023-07-22T14:26:31;15.30;;;5.80;;
62037;SDS011;47991;42.974;12.082;2023-07-22T14:29:01;14.80;;;6.10;;
62037;SDS011;47991;42.974;12.082;2023-07-22T14:31:28;11.90;;;5.60;;
62037;SDS011;47991;42.974;12.082;2023-07-22T14:33:56;14.30;;;6.20;;
62037;SDS011;47991;42.974;12.082;2023-07-22T14:36:23;13.40;;;5.70;;
62037;SDS011;47991;42.974;12.082;2023-07-22T14:38:50;14.40;;;6.00;;
62037;SDS011;47991;42.974;12.082;2023-07-22T14:41:17;12.30;;;5.90;;
62037;SDS011;47991;42.974;12.082;2023-07-22T14:43:44;12.80;;;5.60;;
62037;SDS011;47991;42.974;12.082;2023-07-22T14:46:11;12.40;;;6.50;;